createdAt,value
2022-08-20T09:03:49.513Z,82.17938837342521
2022-08-20T09:11:39.638Z,81.72829342569763
2022-08-20T09:19:36.550Z,80.61029213407689
2022-08-20T09:27:07.788Z,79.93758204016878
2022-08-20T09:35:09.511Z,75.4344193759435
2022-08-20T09:42:46.635Z,74.97771151311497
2022-08-20T09:50:48.938Z,71.96682065715036
2022-08-20T09:58:46.608Z,69.68210211354534
2022-08-20T10:06:42.345Z,68.9699150266403
2022-08-20T10:14:15.970Z,67.92747010978917
2022-08-20T10:21:42.214Z,64.4981898054584
2022-08-20T10:29:22.157Z,64.19462234979338
2022-08-20T10:36:46.992Z,62.469331461898264
2022-08-20T10:44:14.735Z,58.07209350283673
2022-08-20T10:52:06.003Z,56.659760002576576
2022-08-20T10:59:29.385Z,55.42689442715666
2022-08-20T11:07:49.567Z,54.620737949446045
2022-08-20T11:15:49.171Z,51.76172931520017
2022-08-20T11:23:32.919Z,50.1347275873158
2022-08-20T11:31:16.706Z,48.44360809907517
2022-08-20T11:39:41.233Z,47.27085405042406
2022-08-20T11:48:02.925Z,47.918981701847564
2022-08-20T11:55:52.220Z,47.80756057125494
2022-08-20T12:03:55.364Z,48.08888622968807
2022-08-20T12:11:59.107Z,48.78321150659122
2022-08-20T12:19:30.544Z,49.079047620993464
2022-08-20T12:27:00.090Z,48.57087506352897
2022-08-20T12:35:01.851Z,48.42195429588347
2022-08-20T12:42:40.374Z,47.250403726560364
2022-08-20T12:50:08.525Z,45.560865277186025
2022-08-20T12:57:46.570Z,45.16407029468634
2022-08-20T13:05:44.683Z,44.42063282095282
2022-08-20T13:13:14.876Z,44.38449250728915
2022-08-20T13:21:13.054Z,46.519496134338
2022-08-20T13:29:03.690Z,48.5757263460259
2022-08-20T13:36:53.590Z,46.08999239840432
2022-08-20T13:44:19.285Z,46.72767072331807
2022-08-20T13:52:16.343Z,44.83221413966745
2022-08-20T13:59:48.557Z,45.739711892095194
2022-08-20T14:07:32.663Z,45.137470554067555
2022-08-20T14:15:14.178Z,46.29001974255928
2022-08-20T14:22:48.641Z,46.310335160822454
2022-08-20T14:30:29.973Z,46.88687588318315
2022-08-20T14:38:15.940Z,46.16381167784656
2022-08-20T14:46:00.045Z,46.90758794605243
2022-08-20T14:53:24.571Z,47.10010178831269
2022-08-20T15:01:26.251Z,46.365481452461296
2022-08-20T15:09:15.567Z,46.152602574054356
2022-08-20T15:16:57.826Z,46.37685570303143
2022-08-20T15:25:07.928Z,46.96236491801309
2022-08-20T15:32:54.580Z,47.369791536105325
2022-08-20T15:40:34.308Z,48.69753682371181
2022-08-20T15:48:15.772Z,48.589428776171886
2022-08-20T15:55:44.020Z,48.53692184044838
2022-08-20T16:03:36.400Z,47.89244058960562
2022-08-20T16:11:10.971Z,49.320770599595456
2022-08-20T16:18:40.981Z,50.143278874900425
2022-08-20T16:26:11.541Z,48.28688795008247
2022-08-20T16:33:45.487Z,49.850775033416774
2022-08-20T16:41:44.386Z,50.98363740934501
2022-08-20T16:49:23.100Z,51.287929065187434
2022-08-20T16:56:51.093Z,52.0448153514874
2022-08-20T17:04:43.410Z,53.85926339832387
2022-08-20T17:12:36.266Z,54.214556632403884
2022-08-20T17:20:21.110Z,54.070394034777294
2022-08-20T17:27:55.111Z,54.88838702301216
2022-08-20T17:35:40.822Z,54.49658968007373
2022-08-20T17:43:21.536Z,54.926275477261576
2022-08-20T17:51:08.894Z,55.22299592609721
2022-08-20T17:58:52.520Z,55.357511944819976
2022-08-20T18:06:49.810Z,55.77990901112857
2022-08-20T18:14:38.007Z,56.02440695716055
2022-08-20T18:22:15.387Z,56.44777305716346
2022-08-20T18:29:50.616Z,56.48364803018036
2022-08-20T18:37:17.916Z,57.170387148433136
2022-08-20T18:44:52.612Z,57.870954362400155
2022-08-20T18:52:24.928Z,58.616000736839126
2022-08-20T19:00:03.782Z,58.49819512458754
2022-08-20T19:08:08.206Z,58.65654255055037
2022-08-20T19:15:41.141Z,59.563179991398606
2022-08-20T19:23:34.790Z,59.40598757324412
2022-08-20T19:31:31.459Z,60.05844921359166
2022-08-20T19:39:46.508Z,59.903858781600356
2022-08-20T19:47:22.745Z,60.1516910589875
2022-08-20T19:55:03.744Z,59.41406889940012
2022-08-20T20:02:47.516Z,58.827193250364225
2022-08-20T20:10:41.311Z,58.745964125165976
2022-08-20T20:18:11.555Z,58.32926158470219
2022-08-20T20:26:26.990Z,58.562424277709866
2022-08-20T20:34:22.556Z,58.60489038015405
2022-08-20T20:42:28.007Z,59.72535588149817
2022-08-20T20:50:09.738Z,60.487110813490524
2022-08-20T20:58:04.488Z,59.36022305845931
2022-08-20T21:06:24.130Z,59.92568253886864
2022-08-20T21:14:13.339Z,59.1836308868031
2022-08-20T21:21:49.596Z,59.441682051209305
2022-08-20T21:29:20.514Z,60.562059920949096
2022-08-20T21:36:53.181Z,61.8093412111383
2022-08-20T21:44:49.343Z,60.272563445401225
2022-08-20T21:52:22.709Z,61.47660415509964
2022-08-20T22:00:07.411Z,62.56965330458645
2022-08-20T22:07:41.143Z,65.62479357081438
2022-08-20T22:15:22.143Z,64.13899968036034
2022-08-20T22:23:11.737Z,64.39287212450853
2022-08-20T22:30:50.741Z,66.50423454138925
2022-08-20T22:38:37.251Z,67.08312753385735
2022-08-20T22:46:47.529Z,68.39604138433225
2022-08-20T22:54:42.049Z,68.98001815021443
2022-08-20T23:02:37.314Z,69.6467271846692
2022-08-20T23:10:39.573Z,71.38118291884219
2022-08-20T23:18:14.820Z,72.39082388953928
2022-08-20T23:25:49.112Z,72.67324306839576
2022-08-20T23:33:27.205Z,74.11037360089611
2022-08-20T23:41:15.837Z,73.12253546108266
2022-08-20T23:49:02.894Z,73.8447332576973
2022-08-20T23:56:56.904Z,74.81683623970696
